Enright, Arkansas
Current Conditions -  °F | °C
As of 5:56 AM on Sunday 23 Nov 2014 (Local Time) from KSRC Reporting Station
Light Rain Light Rain  
Wind Chill: 58°   Ceiling: 500
Heat Index: 58°   Visibility: 9mi
Dew Point: 57°   Wind: 10mph
Humidity: 97%   Direction: 140°SE
Pressure: 29.7"   Gusts: NA
Location:  35.2662°N, 91.8491°W
Report Text: KSRC 231156Z AUTO 14009KT 9SM -RA OVC005 14/14 A2970 RMK AO2 SLP063 P0008 60010 70010 T01440139 10144 20094 58022 TSNO
Loading
Personal Weather Stations






























Interactive Weather Map New forecast layout! Learn more

10-Day Weather Forecast

Advertisements
Track Severe Weather on mobile